sensor_id;sensor_type;location;lat;lon;timestamp;P1;durP1;ratioP1;P2;durP2;ratioP2
64487;SDS011;50864;45.050;39.014;2023-01-15T00:01:33;24.75;;;14.40;;
64487;SDS011;50864;45.050;39.014;2023-01-15T00:04:01;37.53;;;19.37;;
64487;SDS011;50864;45.050;39.014;2023-01-15T00:06:30;23.33;;;13.30;;
64487;SDS011;50864;45.050;39.014;2023-01-15T00:08:57;34.60;;;15.80;;
64487;SDS011;50864;45.050;39.014;2023-01-15T00:11:23;29.40;;;15.55;;
64487;SDS011;50864;45.050;39.014;2023-01-15T00:13:49;30.27;;;16.00;;
64487;SDS011;50864;45.050;39.014;2023-01-15T00:16:16;33.15;;;17.40;;
64487;SDS011;50864;45.050;39.014;2023-01-15T00:18:51;21.10;;;12.88;;
64487;SDS011;50864;45.050;39.014;2023-01-15T00:21:18;19.62;;;11.95;;
64487;SDS011;50864;45.050;39.014;2023-01-15T00:23:46;23.30;;;11.30;;
64487;SDS011;50864;45.050;39.014;2023-01-15T00:26:31;32.22;;;15.73;;
64487;SDS011;50864;45.050;39.014;2023-01-15T00:29:17;35.22;;;11.95;;
64487;SDS011;50864;45.050;39.014;2023-01-15T00:31:43;29.17;;;14.73;;
64487;SDS011;50864;45.050;39.014;2023-01-15T00:34:16;30.67;;;15.15;;
64487;SDS011;50864;45.050;39.014;2023-01-15T00:36:42;26.90;;;12.98;;
64487;SDS011;50864;45.050;39.014;2023-01-15T00:39:08;29.52;;;15.50;;
64487;SDS011;50864;45.050;39.014;2023-01-15T00:41:34;24.77;;;14.18;;
64487;SDS011;50864;45.050;39.014;2023-01-15T00:44:00;26.15;;;13.20;;
64487;SDS011;50864;45.050;39.014;2023-01-15T00:46:26;24.73;;;12.52;;
64487;SDS011;50864;45.050;39.014;2023-01-15T00:48:53;33.03;;;15.35;;
64487;SDS011;50864;45.050;39.014;2023-01-15T00:51:18;25.17;;;12.00;;
64487;SDS011;50864;45.050;39.014;2023-01-15T00:53:44;42.62;;;15.88;;
64487;SDS011;50864;45.050;39.014;2023-01-15T00:56:10;25.10;;;11.70;;
64487;SDS011;50864;45.050;39.014;2023-01-15T00:58:36;25.02;;;12.48;;
64487;SDS011;50864;45.050;39.014;2023-01-15T01:01:03;25.23;;;12.30;;
64487;SDS011;50864;45.050;39.014;2023-01-15T01:03:29;21.85;;;11.00;;
64487;SDS011;50864;45.050;39.014;2023-01-15T01:05:58;19.45;;;9.00;;
64487;SDS011;50864;45.050;39.014;2023-01-15T01:08:26;17.92;;;9.25;;
64487;SDS011;50864;45.050;39.014;2023-01-15T01:11:05;29.30;;;13.80;;
64487;SDS011;50864;45.050;39.014;2023-01-15T01:16:02;19.27;;;11.68;;
64487;SDS011;50864;45.050;39.014;2023-01-15T01:18:29;27.47;;;14.00;;
64487;SDS011;50864;45.050;39.014;2023-01-15T01:20:55;28.77;;;15.10;;
64487;SDS011;50864;45.050;39.014;2023-01-15T01:23:22;22.00;;;10.80;;
64487;SDS011;50864;45.050;39.014;2023-01-15T01:25:49;26.92;;;13.60;;
64487;SDS011;50864;45.050;39.014;2023-01-15T01:28:15;26.37;;;13.73;;
64487;SDS011;50864;45.050;39.014;2023-01-15T01:30:41;25.27;;;12.03;;
64487;SDS011;50864;45.050;39.014;2023-01-15T01:33:08;21.33;;;10.63;;
64487;SDS011;50864;45.050;39.014;2023-01-15T01:35:34;29.80;;;13.93;;
64487;SDS011;50864;45.050;39.014;2023-01-15T01:38:00;12.63;;;7.12;;
64487;SDS011;50864;45.050;39.014;2023-01-15T01:40:26;23.83;;;12.40;;
64487;SDS011;50864;45.050;39.014;2023-01-15T01:42:52;32.27;;;14.87;;
64487;SDS011;50864;45.050;39.014;2023-01-15T01:45:23;20.23;;;9.88;;
64487;SDS011;50864;45.050;39.014;2023-01-15T01:47:52;25.20;;;11.45;;
64487;SDS011;50864;45.050;39.014;2023-01-15T01:50:22;24.50;;;12.27;;
64487;SDS011;50864;45.050;39.014;2023-01-15T01:52:57;27.50;;;14.43;;
64487;SDS011;50864;45.050;39.014;2023-01-15T01:55:26;26.37;;;11.23;;
64487;SDS011;50864;45.050;39.014;2023-01-15T01:57:54;34.37;;;18.10;;
64487;SDS011;50864;45.050;39.014;2023-01-15T02:00:23;33.47;;;15.87;;
64487;SDS011;50864;45.050;39.014;2023-01-15T02:02:50;26.20;;;13.23;;
64487;SDS011;50864;45.050;39.014;2023-01-15T02:05:22;18.92;;;10.45;;
64487;SDS011;50864;45.050;39.014;2023-01-15T02:07:56;28.70;;;13.37;;
64487;SDS011;50864;45.050;39.014;2023-01-15T02:10:22;28.23;;;15.20;;
64487;SDS011;50864;45.050;39.014;2023-01-15T02:12:54;31.92;;;14.48;;
64487;SDS011;50864;45.050;39.014;2023-01-15T02:16:05;21.43;;;12.20;;
64487;SDS011;50864;45.050;39.014;2023-01-15T02:21:12;21.48;;;9.73;;
64487;SDS011;50864;45.050;39.014;2023-01-15T02:35:05;19.48;;;10.57;;
64487;SDS011;50864;45.050;39.014;2023-01-15T02:40:04;25.42;;;12.85;;
64487;SDS011;50864;45.050;39.014;2023-01-15T02:42:32;24.30;;;14.52;;
64487;SDS011;50864;45.050;39.014;2023-01-15T02:45:00;13.95;;;8.70;;
64487;SDS011;50864;45.050;39.014;2023-01-15T02:47:29;17.08;;;8.30;;
64487;SDS011;50864;45.050;39.014;2023-01-15T02:49:59;22.55;;;10.88;;
64487;SDS011;50864;45.050;39.014;2023-01-15T02:52:33;25.90;;;11.68;;
64487;SDS011;50864;45.050;39.014;2023-01-15T02:57:39;33.53;;;14.85;;
64487;SDS011;50864;45.050;39.014;2023-01-15T03:00:09;26.52;;;13.15;;
64487;SDS011;50864;45.050;39.014;2023-01-15T03:02:40;22.45;;;10.38;;
64487;SDS011;50864;45.050;39.014;2023-01-15T03:05:12;26.10;;;13.32;;
64487;SDS011;50864;45.050;39.014;2023-01-15T03:08:02;23.48;;;12.35;;
64487;SDS011;50864;45.050;39.014;2023-01-15T03:13:09;25.15;;;11.82;;
64487;SDS011;50864;45.050;39.014;2023-01-15T03:16:41;13.85;;;7.55;;
64487;SDS011;50864;45.050;39.014;2023-01-15T03:21:38;26.08;;;12.30;;
64487;SDS011;50864;45.050;39.014;2023-01-15T03:24:09;16.27;;;9.57;;
64487;SDS011;50864;45.050;39.014;2023-01-15T03:26:37;20.05;;;10.00;;
64487;SDS011;50864;45.050;39.014;2023-01-15T03:29:03;23.45;;;11.15;;
64487;SDS011;50864;45.050;39.014;2023-01-15T03:31:33;14.18;;;8.23;;
64487;SDS011;50864;45.050;39.014;2023-01-15T03:34:00;18.95;;;10.35;;
64487;SDS011;50864;45.050;39.014;2023-01-15T03:36:27;22.52;;;10.85;;
64487;SDS011;50864;45.050;39.014;2023-01-15T03:38:53;14.73;;;7.10;;
64487;SDS011;50864;45.050;39.014;2023-01-15T03:41:24;23.27;;;12.27;;
64487;SDS011;50864;45.050;39.014;2023-01-15T03:50:26;18.65;;;9.38;;
64487;SDS011;50864;45.050;39.014;2023-01-15T03:58:25;18.55;;;8.23;;
64487;SDS011;50864;45.050;39.014;2023-01-15T04:01:06;11.52;;;7.05;;
64487;SDS011;50864;45.050;39.014;2023-01-15T04:03:36;16.75;;;8.48;;
64487;SDS011;50864;45.050;39.014;2023-01-15T04:06:04;19.45;;;9.15;;
64487;SDS011;50864;45.050;39.014;2023-01-15T04:08:32;22.30;;;8.93;;
64487;SDS011;50864;45.050;39.014;2023-01-15T04:11:03;18.27;;;9.27;;
64487;SDS011;50864;45.050;39.014;2023-01-15T04:13:29;28.15;;;13.20;;
64487;SDS011;50864;45.050;39.014;2023-01-15T04:15:56;20.42;;;10.93;;
64487;SDS011;50864;45.050;39.014;2023-01-15T04:18:23;22.50;;;11.85;;
64487;SDS011;50864;45.050;39.014;2023-01-15T04:20:49;18.77;;;9.80;;
64487;SDS011;50864;45.050;39.014;2023-01-15T04:23:15;15.95;;;9.07;;
64487;SDS011;50864;45.050;39.014;2023-01-15T04:25:42;23.23;;;9.98;;
64487;SDS011;50864;45.050;39.014;2023-01-15T04:28:08;22.52;;;11.12;;
64487;SDS011;50864;45.050;39.014;2023-01-15T04:30:35;24.40;;;9.68;;
64487;SDS011;50864;45.050;39.014;2023-01-15T04:33:01;17.95;;;9.70;;
64487;SDS011;50864;45.050;39.014;2023-01-15T04:35:28;15.77;;;8.75;;
64487;SDS011;50864;45.050;39.014;2023-01-15T04:37:54;18.23;;;8.68;;
64487;SDS011;50864;45.050;39.014;2023-01-15T04:40:22;16.83;;;8.55;;
64487;SDS011;50864;45.050;39.014;2023-01-15T04:43:07;19.98;;;9.40;;
64487;SDS011;50864;45.050;39.014;2023-01-15T04:45:56;19.25;;;8.70;;
64487;SDS011;50864;45.050;39.014;2023-01-15T04:48:23;16.65;;;9.50;;
64487;SDS011;50864;45.050;39.014;2023-01-15T04:50:49;20.95;;;8.73;;
64487;SDS011;50864;45.050;39.014;2023-01-15T04:53:16;16.58;;;8.73;;
64487;SDS011;50864;45.050;39.014;2023-01-15T04:55:42;18.05;;;9.75;;
64487;SDS011;50864;45.050;39.014;2023-01-15T04:58:08;20.65;;;10.63;;
64487;SDS011;50864;45.050;39.014;2023-01-15T05:00:34;21.27;;;9.80;;
64487;SDS011;50864;45.050;39.014;2023-01-15T05:03:00;34.47;;;17.75;;
64487;SDS011;50864;45.050;39.014;2023-01-15T05:05:26;29.87;;;13.60;;
64487;SDS011;50864;45.050;39.014;2023-01-15T05:07:52;25.00;;;13.32;;
64487;SDS011;50864;45.050;39.014;2023-01-15T05:10:18;27.37;;;11.25;;
64487;SDS011;50864;45.050;39.014;2023-01-15T05:12:44;21.98;;;9.90;;
64487;SDS011;50864;45.050;39.014;2023-01-15T05:15:10;21.45;;;9.95;;
64487;SDS011;50864;45.050;39.014;2023-01-15T05:17:36;18.27;;;9.95;;
64487;SDS011;50864;45.050;39.014;2023-01-15T05:20:02;16.87;;;9.80;;
64487;SDS011;50864;45.050;39.014;2023-01-15T05:22:28;18.10;;;9.13;;
64487;SDS011;50864;45.050;39.014;2023-01-15T05:24:54;22.77;;;9.85;;
64487;SDS011;50864;45.050;39.014;2023-01-15T05:27:20;18.52;;;9.00;;
64487;SDS011;50864;45.050;39.014;2023-01-15T05:29:46;19.00;;;10.55;;
64487;SDS011;50864;45.050;39.014;2023-01-15T05:32:12;16.23;;;9.18;;
64487;SDS011;50864;45.050;39.014;2023-01-15T05:34:38;19.17;;;9.68;;
64487;SDS011;50864;45.050;39.014;2023-01-15T05:37:04;15.77;;;8.45;;
64487;SDS011;50864;45.050;39.014;2023-01-15T05:39:30;16.60;;;9.23;;
64487;SDS011;50864;45.050;39.014;2023-01-15T05:41:56;21.75;;;9.38;;
64487;SDS011;50864;45.050;39.014;2023-01-15T05:44:23;18.52;;;8.98;;
64487;SDS011;50864;45.050;39.014;2023-01-15T05:46:51;22.23;;;9.95;;
64487;SDS011;50864;45.050;39.014;2023-01-15T05:49:24;22.48;;;10.85;;
64487;SDS011;50864;45.050;39.014;2023-01-15T05:51:52;24.37;;;9.77;;
64487;SDS011;50864;45.050;39.014;2023-01-15T05:54:19;24.25;;;9.80;;
64487;SDS011;50864;45.050;39.014;2023-01-15T05:56:47;18.05;;;8.90;;
64487;SDS011;50864;45.050;39.014;2023-01-15T05:59:14;19.85;;;8.82;;
64487;SDS011;50864;45.050;39.014;2023-01-15T06:01:41;12.82;;;7.40;;
64487;SDS011;50864;45.050;39.014;2023-01-15T06:04:09;16.27;;;9.55;;
64487;SDS011;50864;45.050;39.014;2023-01-15T06:06:36;21.00;;;9.95;;
64487;SDS011;50864;45.050;39.014;2023-01-15T06:09:03;22.10;;;10.20;;
64487;SDS011;50864;45.050;39.014;2023-01-15T06:11:31;22.48;;;10.80;;
64487;SDS011;50864;45.050;39.014;2023-01-15T06:13:57;17.12;;;9.32;;
64487;SDS011;50864;45.050;39.014;2023-01-15T06:16:24;17.62;;;10.38;;
64487;SDS011;50864;45.050;39.014;2023-01-15T06:18:52;22.40;;;10.38;;
64487;SDS011;50864;45.050;39.014;2023-01-15T06:21:18;23.70;;;10.32;;
64487;SDS011;50864;45.050;39.014;2023-01-15T06:23:44;15.60;;;8.77;;
64487;SDS011;50864;45.050;39.014;2023-01-15T06:26:12;21.65;;;11.02;;
64487;SDS011;50864;45.050;39.014;2023-01-15T06:28:40;22.00;;;10.48;;
64487;SDS011;50864;45.050;39.014;2023-01-15T06:31:13;21.65;;;10.95;;
64487;SDS011;50864;45.050;39.014;2023-01-15T06:33:43;22.50;;;9.77;;
64487;SDS011;50864;45.050;39.014;2023-01-15T06:36:10;22.42;;;10.43;;
64487;SDS011;50864;45.050;39.014;2023-01-15T06:38:39;23.23;;;10.82;;
64487;SDS011;50864;45.050;39.014;2023-01-15T06:41:06;18.58;;;10.77;;
64487;SDS011;50864;45.050;39.014;2023-01-15T06:43:55;18.05;;;9.05;;
64487;SDS011;50864;45.050;39.014;2023-01-15T06:46:42;19.48;;;10.95;;
64487;SDS011;50864;45.050;39.014;2023-01-15T06:49:29;21.73;;;10.68;;
64487;SDS011;50864;45.050;39.014;2023-01-15T06:51:56;25.58;;;11.30;;
64487;SDS011;50864;45.050;39.014;2023-01-15T06:54:22;27.73;;;12.27;;
64487;SDS011;50864;45.050;39.014;2023-01-15T06:56:48;22.85;;;12.00;;
64487;SDS011;50864;45.050;39.014;2023-01-15T06:59:14;29.87;;;12.63;;
64487;SDS011;50864;45.050;39.014;2023-01-15T07:01:40;24.08;;;12.15;;
64487;SDS011;50864;45.050;39.014;2023-01-15T07:04:06;22.30;;;11.15;;
64487;SDS011;50864;45.050;39.014;2023-01-15T07:06:32;20.58;;;11.60;;
64487;SDS011;50864;45.050;39.014;2023-01-15T07:08:58;22.48;;;11.02;;
64487;SDS011;50864;45.050;39.014;2023-01-15T07:11:24;25.92;;;10.98;;
64487;SDS011;50864;45.050;39.014;2023-01-15T07:13:50;20.45;;;10.68;;
64487;SDS011;50864;45.050;39.014;2023-01-15T07:16:34;22.17;;;12.65;;
64487;SDS011;50864;45.050;39.014;2023-01-15T07:19:01;26.60;;;13.00;;
64487;SDS011;50864;45.050;39.014;2023-01-15T07:21:28;29.37;;;13.27;;
64487;SDS011;50864;45.050;39.014;2023-01-15T07:23:59;29.73;;;14.80;;
64487;SDS011;50864;45.050;39.014;2023-01-15T07:26:27;30.23;;;13.90;;
64487;SDS011;50864;45.050;39.014;2023-01-15T07:28:53;33.03;;;15.30;;
64487;SDS011;50864;45.050;39.014;2023-01-15T07:31:19;28.20;;;15.20;;
64487;SDS011;50864;45.050;39.014;2023-01-15T07:33:45;26.23;;;13.43;;
64487;SDS011;50864;45.050;39.014;2023-01-15T07:36:11;26.83;;;13.13;;
64487;SDS011;50864;45.050;39.014;2023-01-15T07:38:37;24.95;;;12.48;;
64487;SDS011;50864;45.050;39.014;2023-01-15T07:41:03;30.58;;;13.85;;
64487;SDS011;50864;45.050;39.014;2023-01-15T07:43:48;27.10;;;13.40;;
64487;SDS011;50864;45.050;39.014;2023-01-15T07:46:32;30.08;;;13.88;;
64487;SDS011;50864;45.050;39.014;2023-01-15T07:49:17;25.55;;;13.45;;
64487;SDS011;50864;45.050;39.014;2023-01-15T07:52:02;32.55;;;16.15;;
64487;SDS011;50864;45.050;39.014;2023-01-15T07:54:28;30.75;;;14.70;;
64487;SDS011;50864;45.050;39.014;2023-01-15T07:56:54;31.25;;;15.38;;
64487;SDS011;50864;45.050;39.014;2023-01-15T07:59:20;30.75;;;15.45;;
64487;SDS011;50864;45.050;39.014;2023-01-15T08:01:47;28.40;;;16.35;;
64487;SDS011;50864;45.050;39.014;2023-01-15T08:04:13;36.42;;;16.33;;
64487;SDS011;50864;45.050;39.014;2023-01-15T08:06:39;26.12;;;14.00;;
64487;SDS011;50864;45.050;39.014;2023-01-15T08:09:05;35.20;;;15.45;;
64487;SDS011;50864;45.050;39.014;2023-01-15T08:11:34;39.80;;;19.27;;
64487;SDS011;50864;45.050;39.014;2023-01-15T08:14:19;37.15;;;17.30;;
64487;SDS011;50864;45.050;39.014;2023-01-15T08:17:04;33.40;;;15.63;;
64487;SDS011;50864;45.050;39.014;2023-01-15T08:19:30;26.60;;;13.80;;
64487;SDS011;50864;45.050;39.014;2023-01-15T08:21:56;31.87;;;14.90;;
64487;SDS011;50864;45.050;39.014;2023-01-15T08:24:23;36.83;;;16.52;;
64487;SDS011;50864;45.050;39.014;2023-01-15T08:26:49;33.00;;;17.00;;
64487;SDS011;50864;45.050;39.014;2023-01-15T08:29:17;34.45;;;16.85;;
64487;SDS011;50864;45.050;39.014;2023-01-15T08:31:43;30.35;;;14.73;;
64487;SDS011;50864;45.050;39.014;2023-01-15T08:34:09;36.67;;;17.27;;
64487;SDS011;50864;45.050;39.014;2023-01-15T08:36:35;33.50;;;16.30;;
64487;SDS011;50864;45.050;39.014;2023-01-15T08:39:02;23.05;;;12.63;;
64487;SDS011;50864;45.050;39.014;2023-01-15T08:41:28;29.48;;;14.15;;
64487;SDS011;50864;45.050;39.014;2023-01-15T08:43:55;33.88;;;14.38;;
64487;SDS011;50864;45.050;39.014;2023-01-15T08:46:21;24.75;;;11.82;;
64487;SDS011;50864;45.050;39.014;2023-01-15T08:48:47;37.72;;;15.20;;
64487;SDS011;50864;45.050;39.014;2023-01-15T08:51:13;30.73;;;14.25;;
64487;SDS011;50864;45.050;39.014;2023-01-15T08:53:40;29.52;;;14.85;;
64487;SDS011;50864;45.050;39.014;2023-01-15T08:56:16;36.15;;;15.90;;
64487;SDS011;50864;45.050;39.014;2023-01-15T08:58:43;36.78;;;14.87;;
64487;SDS011;50864;45.050;39.014;2023-01-15T09:01:10;35.38;;;16.10;;
64487;SDS011;50864;45.050;39.014;2023-01-15T09:03:43;37.28;;;16.40;;
64487;SDS011;50864;45.050;39.014;2023-01-15T09:06:09;32.63;;;15.73;;
64487;SDS011;50864;45.050;39.014;2023-01-15T09:08:35;33.92;;;16.45;;
64487;SDS011;50864;45.050;39.014;2023-01-15T09:11:03;34.40;;;16.00;;
64487;SDS011;50864;45.050;39.014;2023-01-15T09:13:30;34.30;;;17.30;;
64487;SDS011;50864;45.050;39.014;2023-01-15T09:16:00;36.40;;;16.62;;
64487;SDS011;50864;45.050;39.014;2023-01-15T09:18:30;38.78;;;15.23;;
64487;SDS011;50864;45.050;39.014;2023-01-15T09:20:56;32.53;;;16.73;;
64487;SDS011;50864;45.050;39.014;2023-01-15T09:23:22;37.13;;;17.05;;
64487;SDS011;50864;45.050;39.014;2023-01-15T09:25:55;34.00;;;15.68;;
64487;SDS011;50864;45.050;39.014;2023-01-15T09:28:23;35.63;;;16.23;;
64487;SDS011;50864;45.050;39.014;2023-01-15T09:30:49;33.00;;;16.62;;
64487;SDS011;50864;45.050;39.014;2023-01-15T09:33:15;35.08;;;16.52;;
64487;SDS011;50864;45.050;39.014;2023-01-15T09:35:42;32.38;;;16.23;;
64487;SDS011;50864;45.050;39.014;2023-01-15T09:38:11;30.15;;;16.08;;
64487;SDS011;50864;45.050;39.014;2023-01-15T09:40:49;30.40;;;15.23;;
64487;SDS011;50864;45.050;39.014;2023-01-15T09:46:09;30.50;;;16.60;;
64487;SDS011;50864;45.050;39.014;2023-01-15T09:54:04;30.90;;;16.62;;
64487;SDS011;50864;45.050;39.014;2023-01-15T09:56:43;36.47;;;16.55;;
64487;SDS011;50864;45.050;39.014;2023-01-15T09:59:18;39.25;;;16.65;;
64487;SDS011;50864;45.050;39.014;2023-01-15T10:01:53;33.42;;;16.00;;
64487;SDS011;50864;45.050;39.014;2023-01-15T10:10:08;30.80;;;15.63;;
64487;SDS011;50864;45.050;39.014;2023-01-15T10:12:37;35.47;;;16.58;;
64487;SDS011;50864;45.050;39.014;2023-01-15T10:17:50;35.83;;;16.60;;
64487;SDS011;50864;45.050;39.014;2023-01-15T10:25:41;31.05;;;14.82;;
64487;SDS011;50864;45.050;39.014;2023-01-15T10:28:24;35.47;;;17.62;;
64487;SDS011;50864;45.050;39.014;2023-01-15T10:30:54;33.42;;;14.90;;
64487;SDS011;50864;45.050;39.014;2023-01-15T10:33:29;33.80;;;15.77;;
64487;SDS011;50864;45.050;39.014;2023-01-15T13:16:46;40.22;;;16.37;;
64487;SDS011;50864;45.050;39.014;2023-01-15T13:21:57;35.65;;;15.50;;
64487;SDS011;50864;45.050;39.014;2023-01-15T13:33:16;36.28;;;18.62;;
64487;SDS011;50864;45.050;39.014;2023-01-15T13:35:51;32.95;;;17.37;;
64487;SDS011;50864;45.050;39.014;2023-01-15T13:38:23;40.38;;;20.92;;
64487;SDS011;50864;45.050;39.014;2023-01-15T13:40:53;32.83;;;18.40;;
64487;SDS011;50864;45.050;39.014;2023-01-15T13:43:35;40.22;;;19.75;;
64487;SDS011;50864;45.050;39.014;2023-01-15T13:46:07;36.25;;;18.85;;
64487;SDS011;50864;45.050;39.014;2023-01-15T13:48:42;41.97;;;21.58;;
64487;SDS011;50864;45.050;39.014;2023-01-15T13:51:45;46.15;;;22.20;;
64487;SDS011;50864;45.050;39.014;2023-01-15T13:54:15;42.92;;;20.70;;
64487;SDS011;50864;45.050;39.014;2023-01-15T13:56:44;39.08;;;20.85;;
64487;SDS011;50864;45.050;39.014;2023-01-15T13:59:31;35.45;;;19.05;;
64487;SDS011;50864;45.050;39.014;2023-01-15T14:04:50;34.00;;;19.85;;
64487;SDS011;50864;45.050;39.014;2023-01-15T14:07:20;41.60;;;20.10;;
64487;SDS011;50864;45.050;39.014;2023-01-15T14:10:06;33.50;;;17.17;;
64487;SDS011;50864;45.050;39.014;2023-01-15T14:12:47;34.88;;;16.67;;
64487;SDS011;50864;45.050;39.014;2023-01-15T14:18:21;45.58;;;23.10;;
64487;SDS011;50864;45.050;39.014;2023-01-15T14:20:59;42.88;;;18.90;;
64487;SDS011;50864;45.050;39.014;2023-01-15T14:23:58;45.40;;;21.25;;
64487;SDS011;50864;45.050;39.014;2023-01-15T14:26:30;50.22;;;22.73;;
64487;SDS011;50864;45.050;39.014;2023-01-15T14:34:52;47.97;;;21.95;;
64487;SDS011;50864;45.050;39.014;2023-01-15T14:37:22;41.80;;;23.45;;
64487;SDS011;50864;45.050;39.014;2023-01-15T14:39:56;51.03;;;24.27;;
64487;SDS011;50864;45.050;39.014;2023-01-15T14:45:19;45.60;;;23.60;;
64487;SDS011;50864;45.050;39.014;2023-01-15T14:47:52;47.08;;;23.42;;
64487;SDS011;50864;45.050;39.014;2023-01-15T14:52:59;46.03;;;22.40;;
64487;SDS011;50864;45.050;39.014;2023-01-15T14:55:29;51.83;;;25.62;;
64487;SDS011;50864;45.050;39.014;2023-01-15T14:58:09;54.00;;;26.80;;
64487;SDS011;50864;45.050;39.014;2023-01-15T15:03:18;60.85;;;27.83;;
64487;SDS011;50864;45.050;39.014;2023-01-15T15:05:46;68.60;;;32.53;;
64487;SDS011;50864;45.050;39.014;2023-01-15T15:08:14;72.87;;;34.67;;
64487;SDS011;50864;45.050;39.014;2023-01-15T15:10:43;94.28;;;41.40;;
64487;SDS011;50864;45.050;39.014;2023-01-15T15:15:49;66.03;;;31.23;;
64487;SDS011;50864;45.050;39.014;2023-01-15T15:23:36;65.70;;;30.85;;
64487;SDS011;50864;45.050;39.014;2023-01-15T15:26:24;56.40;;;27.27;;
64487;SDS011;50864;45.050;39.014;2023-01-15T15:29:05;52.65;;;26.42;;
64487;SDS011;50864;45.050;39.014;2023-01-15T15:31:37;60.67;;;29.85;;
64487;SDS011;50864;45.050;39.014;2023-01-15T15:34:04;55.22;;;28.45;;
64487;SDS011;50864;45.050;39.014;2023-01-15T15:36:32;68.28;;;28.85;;
64487;SDS011;50864;45.050;39.014;2023-01-15T15:39:02;55.35;;;28.12;;
64487;SDS011;50864;45.050;39.014;2023-01-15T15:41:38;67.07;;;28.45;;
64487;SDS011;50864;45.050;39.014;2023-01-15T15:47:36;55.42;;;27.60;;
64487;SDS011;50864;45.050;39.014;2023-01-15T15:50:25;54.35;;;27.58;;
64487;SDS011;50864;45.050;39.014;2023-01-15T15:52:52;56.13;;;29.45;;
64487;SDS011;50864;45.050;39.014;2023-01-15T15:55:18;50.47;;;26.00;;
64487;SDS011;50864;45.050;39.014;2023-01-15T15:57:46;54.42;;;27.05;;
64487;SDS011;50864;45.050;39.014;2023-01-15T16:00:30;68.82;;;29.55;;
64487;SDS011;50864;45.050;39.014;2023-01-15T16:03:00;52.13;;;25.65;;
64487;SDS011;50864;45.050;39.014;2023-01-15T16:05:30;50.92;;;26.92;;
64487;SDS011;50864;45.050;39.014;2023-01-15T16:10:54;60.05;;;28.38;;
64487;SDS011;50864;45.050;39.014;2023-01-15T16:13:34;60.12;;;28.67;;
64487;SDS011;50864;45.050;39.014;2023-01-15T16:16:04;53.13;;;25.55;;
64487;SDS011;50864;45.050;39.014;2023-01-15T16:18:39;54.83;;;27.30;;
64487;SDS011;50864;45.050;39.014;2023-01-15T16:21:16;62.78;;;29.00;;
64487;SDS011;50864;45.050;39.014;2023-01-15T16:23:58;57.50;;;28.87;;
64487;SDS011;50864;45.050;39.014;2023-01-15T16:29:16;61.40;;;27.65;;
64487;SDS011;50864;45.050;39.014;2023-01-15T16:31:45;48.22;;;25.10;;
64487;SDS011;50864;45.050;39.014;2023-01-15T16:34:17;58.95;;;28.83;;
64487;SDS011;50864;45.050;39.014;2023-01-15T16:44:58;55.92;;;27.15;;
64487;SDS011;50864;45.050;39.014;2023-01-15T16:47:30;77.28;;;36.35;;
64487;SDS011;50864;45.050;39.014;2023-01-15T16:52:49;58.00;;;30.15;;
64487;SDS011;50864;45.050;39.014;2023-01-15T17:00:39;76.28;;;33.42;;
64487;SDS011;50864;45.050;39.014;2023-01-15T17:03:11;66.35;;;31.08;;
64487;SDS011;50864;45.050;39.014;2023-01-15T17:05:37;73.87;;;30.58;;
64487;SDS011;50864;45.050;39.014;2023-01-15T17:08:03;66.75;;;30.48;;
64487;SDS011;50864;45.050;39.014;2023-01-15T17:10:30;69.28;;;34.67;;
64487;SDS011;50864;45.050;39.014;2023-01-15T17:12:56;96.60;;;43.28;;
64487;SDS011;50864;45.050;39.014;2023-01-15T17:17:52;65.90;;;32.38;;
64487;SDS011;50864;45.050;39.014;2023-01-15T17:20:20;68.35;;;33.15;;
64487;SDS011;50864;45.050;39.014;2023-01-15T17:22:51;76.57;;;35.38;;
64487;SDS011;50864;45.050;39.014;2023-01-15T17:27:52;76.07;;;34.00;;
64487;SDS011;50864;45.050;39.014;2023-01-15T17:30:20;72.53;;;34.28;;
64487;SDS011;50864;45.050;39.014;2023-01-15T17:32:47;78.85;;;37.45;;
64487;SDS011;50864;45.050;39.014;2023-01-15T17:35:19;85.80;;;39.97;;
64487;SDS011;50864;45.050;39.014;2023-01-15T17:37:51;108.72;;;48.47;;
64487;SDS011;50864;45.050;39.014;2023-01-15T17:40:18;123.75;;;55.50;;
64487;SDS011;50864;45.050;39.014;2023-01-15T17:42:44;84.25;;;40.88;;
64487;SDS011;50864;45.050;39.014;2023-01-15T17:45:14;72.97;;;34.70;;
64487;SDS011;50864;45.050;39.014;2023-01-15T17:47:46;79.45;;;39.22;;
64487;SDS011;50864;45.050;39.014;2023-01-15T17:50:12;65.00;;;31.87;;
64487;SDS011;50864;45.050;39.014;2023-01-15T17:52:39;69.47;;;33.10;;
64487;SDS011;50864;45.050;39.014;2023-01-15T17:55:06;75.30;;;33.33;;
64487;SDS011;50864;45.050;39.014;2023-01-15T17:57:52;75.47;;;33.15;;
64487;SDS011;50864;45.050;39.014;2023-01-15T18:00:37;72.55;;;33.60;;
64487;SDS011;50864;45.050;39.014;2023-01-15T18:03:22;73.57;;;35.60;;
64487;SDS011;50864;45.050;39.014;2023-01-15T18:06:08;84.70;;;37.97;;
64487;SDS011;50864;45.050;39.014;2023-01-15T18:08:38;116.22;;;51.80;;
64487;SDS011;50864;45.050;39.014;2023-01-15T18:11:05;69.93;;;35.65;;
64487;SDS011;50864;45.050;39.014;2023-01-15T18:13:31;87.22;;;39.45;;
64487;SDS011;50864;45.050;39.014;2023-01-15T18:15:57;84.70;;;41.97;;
64487;SDS011;50864;45.050;39.014;2023-01-15T18:18:23;93.65;;;39.25;;
64487;SDS011;50864;45.050;39.014;2023-01-15T18:20:49;85.28;;;37.35;;
64487;SDS011;50864;45.050;39.014;2023-01-15T18:23:15;77.37;;;34.30;;
64487;SDS011;50864;45.050;39.014;2023-01-15T18:25:42;71.57;;;33.83;;
64487;SDS011;50864;45.050;39.014;2023-01-15T18:28:10;71.37;;;33.83;;
64487;SDS011;50864;45.050;39.014;2023-01-15T18:30:37;63.63;;;28.67;;
64487;SDS011;50864;45.050;39.014;2023-01-15T18:33:03;65.97;;;30.02;;
64487;SDS011;50864;45.050;39.014;2023-01-15T18:35:29;74.45;;;31.17;;
64487;SDS011;50864;45.050;39.014;2023-01-15T18:37:56;55.47;;;27.37;;
64487;SDS011;50864;45.050;39.014;2023-01-15T18:40:22;71.15;;;28.23;;
64487;SDS011;50864;45.050;39.014;2023-01-15T18:42:54;62.97;;;28.70;;
64487;SDS011;50864;45.050;39.014;2023-01-15T18:45:39;63.83;;;26.83;;
64487;SDS011;50864;45.050;39.014;2023-01-15T18:48:24;50.42;;;23.87;;
64487;SDS011;50864;45.050;39.014;2023-01-15T18:50:50;47.42;;;22.65;;
64487;SDS011;50864;45.050;39.014;2023-01-15T18:53:20;52.53;;;23.70;;
64487;SDS011;50864;45.050;39.014;2023-01-15T18:55:46;41.58;;;21.37;;
64487;SDS011;50864;45.050;39.014;2023-01-15T18:58:12;43.10;;;23.40;;
64487;SDS011;50864;45.050;39.014;2023-01-15T19:00:38;50.47;;;23.95;;
64487;SDS011;50864;45.050;39.014;2023-01-15T19:03:04;50.05;;;23.60;;
64487;SDS011;50864;45.050;39.014;2023-01-15T19:05:30;49.95;;;24.40;;
64487;SDS011;50864;45.050;39.014;2023-01-15T19:07:56;47.13;;;22.33;;
64487;SDS011;50864;45.050;39.014;2023-01-15T19:10:22;55.97;;;23.95;;
64487;SDS011;50864;45.050;39.014;2023-01-15T19:12:48;53.28;;;24.63;;
64487;SDS011;50864;45.050;39.014;2023-01-15T19:15:15;40.22;;;20.85;;
64487;SDS011;50864;45.050;39.014;2023-01-15T19:18:02;43.95;;;22.17;;
64487;SDS011;50864;45.050;39.014;2023-01-15T19:20:47;44.28;;;19.98;;